sensor_id;sensor_type;location;lat;lon;timestamp;temperature;humidity
4687;DHT22;2357;47.316;-1.348;2023-04-03T00:01:03;8.80;99.90
4687;DHT22;2357;47.316;-1.348;2023-04-03T00:03:29;8.70;99.90
4687;DHT22;2357;47.316;-1.348;2023-04-03T00:05:55;8.70;99.90
4687;DHT22;2357;47.316;-1.348;2023-04-03T00:08:21;8.70;99.90
4687;DHT22;2357;47.316;-1.348;2023-04-03T00:10:47;8.70;99.90
4687;DHT22;2357;47.316;-1.348;2023-04-03T00:13:12;8.70;99.90
4687;DHT22;2357;47.316;-1.348;2023-04-03T00:15:39;8.60;99.90
4687;DHT22;2357;47.316;-1.348;2023-04-03T00:18:05;8.60;99.90
4687;DHT22;2357;47.316;-1.348;2023-04-03T00:20:32;8.50;99.90
4687;DHT22;2357;47.316;-1.348;2023-04-03T00:22:57;8.50;99.90
4687;DHT22;2357;47.316;-1.348;2023-04-03T00:25:23;8.60;99.90
4687;DHT22;2357;47.316;-1.348;2023-04-03T00:27:49;8.30;99.90
4687;DHT22;2357;47.316;-1.348;2023-04-03T00:30:17;8.40;99.90
4687;DHT22;2357;47.316;-1.348;2023-04-03T00:32:43;8.40;99.90
4687;DHT22;2357;47.316;-1.348;2023-04-03T00:35:09;8.40;99.90
4687;DHT22;2357;47.316;-1.348;2023-04-03T00:37:36;8.40;99.90
4687;DHT22;2357;47.316;-1.348;2023-04-03T00:40:02;8.30;99.90
4687;DHT22;2357;47.316;-1.348;2023-04-03T00:42:28;8.30;99.90
4687;DHT22;2357;47.316;-1.348;2023-04-03T00:47:23;8.30;99.90
4687;DHT22;2357;47.316;-1.348;2023-04-03T00:49:49;8.30;99.90
4687;DHT22;2357;47.316;-1.348;2023-04-03T00:52:19;8.20;99.90
4687;DHT22;2357;47.316;-1.348;2023-04-03T00:54:47;8.20;99.90
4687;DHT22;2357;47.316;-1.348;2023-04-03T00:57:14;8.20;99.90
4687;DHT22;2357;47.316;-1.348;2023-04-03T00:59:46;8.20;99.90
4687;DHT22;2357;47.316;-1.348;2023-04-03T01:02:13;8.10;99.90
4687;DHT22;2357;47.316;-1.348;2023-04-03T01:04:41;8.10;99.90
4687;DHT22;2357;47.316;-1.348;2023-04-03T01:09:38;8.00;99.90
4687;DHT22;2357;47.316;-1.348;2023-04-03T01:12:18;7.90;99.90
4687;DHT22;2357;47.316;-1.348;2023-04-03T01:14:45;8.00;99.90
4687;DHT22;2357;47.316;-1.348;2023-04-03T01:17:42;7.90;99.90
4687;DHT22;2357;47.316;-1.348;2023-04-03T01:25:47;7.80;99.90
4687;DHT22;2357;47.316;-1.348;2023-04-03T01:30:53;7.80;99.90
4687;DHT22;2357;47.316;-1.348;2023-04-03T01:33:21;7.70;99.90
4687;DHT22;2357;47.316;-1.348;2023-04-03T01:35:47;7.60;99.90
4687;DHT22;2357;47.316;-1.348;2023-04-03T01:38:13;7.50;99.90
4687;DHT22;2357;47.316;-1.348;2023-04-03T01:40:38;7.60;99.90
4687;DHT22;2357;47.316;-1.348;2023-04-03T01:43:04;7.50;99.90
4687;DHT22;2357;47.316;-1.348;2023-04-03T01:45:30;7.50;99.90
4687;DHT22;2357;47.316;-1.348;2023-04-03T01:47:56;7.40;99.90
4687;DHT22;2357;47.316;-1.348;2023-04-03T01:50:21;7.40;99.90
4687;DHT22;2357;47.316;-1.348;2023-04-03T01:52:47;7.40;99.90
4687;DHT22;2357;47.316;-1.348;2023-04-03T01:55:13;7.50;99.90
4687;DHT22;2357;47.316;-1.348;2023-04-03T01:57:38;7.40;99.90
4687;DHT22;2357;47.316;-1.348;2023-04-03T02:00:05;7.20;99.90
4687;DHT22;2357;47.316;-1.348;2023-04-03T02:02:30;7.30;99.90
4687;DHT22;2357;47.316;-1.348;2023-04-03T02:04:56;7.30;99.90
4687;DHT22;2357;47.316;-1.348;2023-04-03T02:07:21;7.30;99.90
4687;DHT22;2357;47.316;-1.348;2023-04-03T02:09:47;7.30;99.90
4687;DHT22;2357;47.316;-1.348;2023-04-03T02:12:13;7.20;99.90
4687;DHT22;2357;47.316;-1.348;2023-04-03T02:14:38;7.20;99.90
4687;DHT22;2357;47.316;-1.348;2023-04-03T02:17:04;7.20;99.90
4687;DHT22;2357;47.316;-1.348;2023-04-03T02:19:34;7.20;99.90
4687;DHT22;2357;47.316;-1.348;2023-04-03T02:22:01;7.20;99.90
4687;DHT22;2357;47.316;-1.348;2023-04-03T02:24:26;7.10;99.90
4687;DHT22;2357;47.316;-1.348;2023-04-03T02:26:53;7.10;99.90
4687;DHT22;2357;47.316;-1.348;2023-04-03T02:29:19;7.20;99.90
4687;DHT22;2357;47.316;-1.348;2023-04-03T02:31:45;7.20;99.90
4687;DHT22;2357;47.316;-1.348;2023-04-03T02:34:10;7.10;99.90
4687;DHT22;2357;47.316;-1.348;2023-04-03T02:36:36;7.00;99.90
4687;DHT22;2357;47.316;-1.348;2023-04-03T02:39:01;7.00;99.90
4687;DHT22;2357;47.316;-1.348;2023-04-03T02:41:27;6.90;99.90
4687;DHT22;2357;47.316;-1.348;2023-04-03T02:44:03;6.80;99.90
4687;DHT22;2357;47.316;-1.348;2023-04-03T02:46:29;6.80;99.90
4687;DHT22;2357;47.316;-1.348;2023-04-03T02:48:55;6.90;99.90
4687;DHT22;2357;47.316;-1.348;2023-04-03T02:51:22;6.80;99.90
4687;DHT22;2357;47.316;-1.348;2023-04-03T02:53:48;6.80;99.90
4687;DHT22;2357;47.316;-1.348;2023-04-03T02:56:14;6.80;99.90
4687;DHT22;2357;47.316;-1.348;2023-04-03T02:58:40;6.80;99.90
4687;DHT22;2357;47.316;-1.348;2023-04-03T03:01:06;6.80;99.90
4687;DHT22;2357;47.316;-1.348;2023-04-03T03:03:31;6.70;99.90
4687;DHT22;2357;47.316;-1.348;2023-04-03T03:06:02;6.70;99.90
4687;DHT22;2357;47.316;-1.348;2023-04-03T03:08:28;6.70;99.90
4687;DHT22;2357;47.316;-1.348;2023-04-03T03:10:53;6.60;99.90
4687;DHT22;2357;47.316;-1.348;2023-04-03T03:13:19;6.70;99.90
4687;DHT22;2357;47.316;-1.348;2023-04-03T03:15:44;6.70;99.90
4687;DHT22;2357;47.316;-1.348;2023-04-03T03:18:10;6.70;99.90
4687;DHT22;2357;47.316;-1.348;2023-04-03T03:20:36;6.70;99.90
4687;DHT22;2357;47.316;-1.348;2023-04-03T03:23:01;6.60;99.90
4687;DHT22;2357;47.316;-1.348;2023-04-03T03:25:27;6.60;99.90
4687;DHT22;2357;47.316;-1.348;2023-04-03T03:27:52;6.40;99.90
4687;DHT22;2357;47.316;-1.348;2023-04-03T03:30:18;6.40;99.90
4687;DHT22;2357;47.316;-1.348;2023-04-03T03:32:44;6.40;99.90
4687;DHT22;2357;47.316;-1.348;2023-04-03T03:35:09;6.40;99.90
4687;DHT22;2357;47.316;-1.348;2023-04-03T03:37:35;6.40;99.90
4687;DHT22;2357;47.316;-1.348;2023-04-03T03:40:00;6.30;99.90
4687;DHT22;2357;47.316;-1.348;2023-04-03T03:42:26;6.30;99.90
4687;DHT22;2357;47.316;-1.348;2023-04-03T03:44:52;6.30;99.90
4687;DHT22;2357;47.316;-1.348;2023-04-03T03:47:17;6.30;99.90
4687;DHT22;2357;47.316;-1.348;2023-04-03T03:49:43;6.20;99.90
4687;DHT22;2357;47.316;-1.348;2023-04-03T03:52:08;6.00;99.90
4687;DHT22;2357;47.316;-1.348;2023-04-03T03:54:36;6.10;99.90
4687;DHT22;2357;47.316;-1.348;2023-04-03T03:57:02;6.00;99.90
4687;DHT22;2357;47.316;-1.348;2023-04-03T03:59:28;6.00;99.90
4687;DHT22;2357;47.316;-1.348;2023-04-03T04:01:53;6.00;99.90
4687;DHT22;2357;47.316;-1.348;2023-04-03T04:04:20;6.00;99.90
4687;DHT22;2357;47.316;-1.348;2023-04-03T04:06:45;6.00;99.90
4687;DHT22;2357;47.316;-1.348;2023-04-03T04:09:11;6.10;99.90
4687;DHT22;2357;47.316;-1.348;2023-04-03T04:11:37;6.00;99.90
4687;DHT22;2357;47.316;-1.348;2023-04-03T04:14:05;6.00;99.90
4687;DHT22;2357;47.316;-1.348;2023-04-03T04:16:30;5.90;99.90
4687;DHT22;2357;47.316;-1.348;2023-04-03T04:18:56;5.80;99.90
4687;DHT22;2357;47.316;-1.348;2023-04-03T04:21:22;5.80;99.90
4687;DHT22;2357;47.316;-1.348;2023-04-03T04:23:47;5.70;99.90
4687;DHT22;2357;47.316;-1.348;2023-04-03T04:26:13;5.70;99.90
4687;DHT22;2357;47.316;-1.348;2023-04-03T04:28:38;5.70;99.90
4687;DHT22;2357;47.316;-1.348;2023-04-03T04:31:04;5.70;99.90
4687;DHT22;2357;47.316;-1.348;2023-04-03T04:33:30;5.60;99.90
4687;DHT22;2357;47.316;-1.348;2023-04-03T04:35:56;5.60;99.90
4687;DHT22;2357;47.316;-1.348;2023-04-03T04:38:21;5.70;99.90
4687;DHT22;2357;47.316;-1.348;2023-04-03T04:40:48;5.60;99.90
4687;DHT22;2357;47.316;-1.348;2023-04-03T04:43:14;5.60;99.90
4687;DHT22;2357;47.316;-1.348;2023-04-03T04:45:41;5.70;99.90
4687;DHT22;2357;47.316;-1.348;2023-04-03T04:48:06;5.50;99.90
4687;DHT22;2357;47.316;-1.348;2023-04-03T04:50:32;5.60;99.90
4687;DHT22;2357;47.316;-1.348;2023-04-03T04:52:58;5.60;99.90
4687;DHT22;2357;47.316;-1.348;2023-04-03T04:55:23;5.60;99.90
4687;DHT22;2357;47.316;-1.348;2023-04-03T04:57:49;5.60;99.90
4687;DHT22;2357;47.316;-1.348;2023-04-03T05:00:15;5.70;99.90
4687;DHT22;2357;47.316;-1.348;2023-04-03T05:02:41;5.60;99.90
4687;DHT22;2357;47.316;-1.348;2023-04-03T05:05:07;5.60;99.90
4687;DHT22;2357;47.316;-1.348;2023-04-03T05:07:33;5.60;99.90
4687;DHT22;2357;47.316;-1.348;2023-04-03T05:10:01;5.60;99.90
4687;DHT22;2357;47.316;-1.348;2023-04-03T05:12:28;5.60;99.90
4687;DHT22;2357;47.316;-1.348;2023-04-03T05:14:53;5.40;99.90
4687;DHT22;2357;47.316;-1.348;2023-04-03T05:17:19;5.50;99.90
4687;DHT22;2357;47.316;-1.348;2023-04-03T05:19:45;5.60;99.90
4687;DHT22;2357;47.316;-1.348;2023-04-03T05:22:11;5.50;99.90
4687;DHT22;2357;47.316;-1.348;2023-04-03T05:24:36;5.60;99.90
4687;DHT22;2357;47.316;-1.348;2023-04-03T05:27:02;5.60;99.90
4687;DHT22;2357;47.316;-1.348;2023-04-03T05:29:28;5.50;99.90
4687;DHT22;2357;47.316;-1.348;2023-04-03T05:31:53;5.50;99.90
4687;DHT22;2357;47.316;-1.348;2023-04-03T05:34:19;5.50;99.90
4687;DHT22;2357;47.316;-1.348;2023-04-03T05:36:45;5.60;99.90
4687;DHT22;2357;47.316;-1.348;2023-04-03T05:39:11;5.70;99.90
4687;DHT22;2357;47.316;-1.348;2023-04-03T05:41:36;5.70;99.90
4687;DHT22;2357;47.316;-1.348;2023-04-03T05:44:02;5.90;99.90
4687;DHT22;2357;47.316;-1.348;2023-04-03T05:46:27;5.90;99.90
4687;DHT22;2357;47.316;-1.348;2023-04-03T05:48:53;6.00;99.90
4687;DHT22;2357;47.316;-1.348;2023-04-03T05:51:22;6.00;99.90
4687;DHT22;2357;47.316;-1.348;2023-04-03T05:53:52;6.00;99.90
4687;DHT22;2357;47.316;-1.348;2023-04-03T05:56:18;6.10;99.90
4687;DHT22;2357;47.316;-1.348;2023-04-03T05:58:45;6.10;99.90
4687;DHT22;2357;47.316;-1.348;2023-04-03T06:01:11;6.20;99.90
4687;DHT22;2357;47.316;-1.348;2023-04-03T06:03:37;6.20;99.90
4687;DHT22;2357;47.316;-1.348;2023-04-03T06:06:04;6.20;99.90
4687;DHT22;2357;47.316;-1.348;2023-04-03T06:08:29;6.20;99.90
4687;DHT22;2357;47.316;-1.348;2023-04-03T06:10:55;6.20;99.90
4687;DHT22;2357;47.316;-1.348;2023-04-03T06:13:21;6.30;99.90
4687;DHT22;2357;47.316;-1.348;2023-04-03T06:15:47;6.40;99.90
4687;DHT22;2357;47.316;-1.348;2023-04-03T06:18:13;6.40;99.90
4687;DHT22;2357;47.316;-1.348;2023-04-03T06:20:39;6.50;99.90
4687;DHT22;2357;47.316;-1.348;2023-04-03T06:23:05;6.40;99.90
4687;DHT22;2357;47.316;-1.348;2023-04-03T06:25:30;6.50;99.90
4687;DHT22;2357;47.316;-1.348;2023-04-03T06:27:57;6.50;99.90
4687;DHT22;2357;47.316;-1.348;2023-04-03T06:30:22;6.60;99.90
4687;DHT22;2357;47.316;-1.348;2023-04-03T06:32:48;6.60;99.90
4687;DHT22;2357;47.316;-1.348;2023-04-03T06:35:14;6.60;99.90
4687;DHT22;2357;47.316;-1.348;2023-04-03T06:37:39;6.60;99.90
4687;DHT22;2357;47.316;-1.348;2023-04-03T06:40:05;6.70;99.90
4687;DHT22;2357;47.316;-1.348;2023-04-03T06:42:31;6.70;99.90
4687;DHT22;2357;47.316;-1.348;2023-04-03T06:44:57;6.70;99.90
4687;DHT22;2357;47.316;-1.348;2023-04-03T06:47:22;6.80;99.90
4687;DHT22;2357;47.316;-1.348;2023-04-03T06:49:48;6.80;99.90
4687;DHT22;2357;47.316;-1.348;2023-04-03T06:52:14;6.90;99.90
4687;DHT22;2357;47.316;-1.348;2023-04-03T06:54:40;6.90;99.90
4687;DHT22;2357;47.316;-1.348;2023-04-03T06:57:06;7.00;99.90
4687;DHT22;2357;47.316;-1.348;2023-04-03T06:59:32;7.00;99.90
4687;DHT22;2357;47.316;-1.348;2023-04-03T07:01:58;7.00;99.90
4687;DHT22;2357;47.316;-1.348;2023-04-03T07:04:25;7.10;99.90
4687;DHT22;2357;47.316;-1.348;2023-04-03T07:06:50;7.10;99.90
4687;DHT22;2357;47.316;-1.348;2023-04-03T07:09:17;7.20;99.90
4687;DHT22;2357;47.316;-1.348;2023-04-03T07:11:43;7.20;99.90
4687;DHT22;2357;47.316;-1.348;2023-04-03T07:14:09;7.20;99.90
4687;DHT22;2357;47.316;-1.348;2023-04-03T07:16:35;7.30;99.90
4687;DHT22;2357;47.316;-1.348;2023-04-03T07:19:02;7.30;99.90
4687;DHT22;2357;47.316;-1.348;2023-04-03T07:21:28;7.40;99.90
4687;DHT22;2357;47.316;-1.348;2023-04-03T07:23:54;7.40;99.90
4687;DHT22;2357;47.316;-1.348;2023-04-03T07:26:20;7.40;99.90
4687;DHT22;2357;47.316;-1.348;2023-04-03T07:28:47;7.40;99.90
4687;DHT22;2357;47.316;-1.348;2023-04-03T07:31:15;7.40;99.90
4687;DHT22;2357;47.316;-1.348;2023-04-03T07:33:42;7.50;99.90
4687;DHT22;2357;47.316;-1.348;2023-04-03T07:36:08;7.60;99.90
4687;DHT22;2357;47.316;-1.348;2023-04-03T07:38:36;7.70;99.90
4687;DHT22;2357;47.316;-1.348;2023-04-03T07:41:03;7.70;99.90
4687;DHT22;2357;47.316;-1.348;2023-04-03T07:43:29;7.80;99.90
4687;DHT22;2357;47.316;-1.348;2023-04-03T07:45:54;7.80;99.90
4687;DHT22;2357;47.316;-1.348;2023-04-03T07:48:25;7.90;99.90
4687;DHT22;2357;47.316;-1.348;2023-04-03T07:50:51;8.00;99.90
4687;DHT22;2357;47.316;-1.348;2023-04-03T07:53:18;7.90;99.90
4687;DHT22;2357;47.316;-1.348;2023-04-03T07:55:47;7.90;99.90
4687;DHT22;2357;47.316;-1.348;2023-04-03T07:58:16;8.10;99.90
4687;DHT22;2357;47.316;-1.348;2023-04-03T08:00:43;8.20;99.90
4687;DHT22;2357;47.316;-1.348;2023-04-03T08:03:11;8.20;99.90
4687;DHT22;2357;47.316;-1.348;2023-04-03T08:05:38;8.30;99.90
4687;DHT22;2357;47.316;-1.348;2023-04-03T08:08:05;8.40;99.90
4687;DHT22;2357;47.316;-1.348;2023-04-03T08:10:32;8.40;99.90
4687;DHT22;2357;47.316;-1.348;2023-04-03T08:12:58;8.40;99.90
4687;DHT22;2357;47.316;-1.348;2023-04-03T08:15:24;8.50;99.90
4687;DHT22;2357;47.316;-1.348;2023-04-03T08:17:50;8.50;99.90
4687;DHT22;2357;47.316;-1.348;2023-04-03T08:20:16;8.60;99.90
4687;DHT22;2357;47.316;-1.348;2023-04-03T08:22:42;8.60;99.90
4687;DHT22;2357;47.316;-1.348;2023-04-03T08:25:08;8.70;99.90
4687;DHT22;2357;47.316;-1.348;2023-04-03T08:27:34;8.70;99.90
4687;DHT22;2357;47.316;-1.348;2023-04-03T08:30:00;8.80;99.90
4687;DHT22;2357;47.316;-1.348;2023-04-03T08:32:26;8.90;99.90
4687;DHT22;2357;47.316;-1.348;2023-04-03T08:34:53;8.90;99.90
4687;DHT22;2357;47.316;-1.348;2023-04-03T08:37:18;8.90;99.90
4687;DHT22;2357;47.316;-1.348;2023-04-03T08:39:44;8.90;99.90
4687;DHT22;2357;47.316;-1.348;2023-04-03T08:47:40;8.90;99.90
4687;DHT22;2357;47.316;-1.348;2023-04-03T08:50:19;8.80;99.90
4687;DHT22;2357;47.316;-1.348;2023-04-03T08:52:56;8.80;99.90
4687;DHT22;2357;47.316;-1.348;2023-04-03T08:55:28;8.80;99.90
4687;DHT22;2357;47.316;-1.348;2023-04-03T08:58:03;8.80;99.90
4687;DHT22;2357;47.316;-1.348;2023-04-03T09:00:41;8.70;99.90
4687;DHT22;2357;47.316;-1.348;2023-04-03T09:03:13;8.80;99.90
4687;DHT22;2357;47.316;-1.348;2023-04-03T09:08:33;8.80;99.90
4687;DHT22;2357;47.316;-1.348;2023-04-03T09:11:22;8.70;99.90
4687;DHT22;2357;47.316;-1.348;2023-04-03T09:13:52;8.70;99.90
4687;DHT22;2357;47.316;-1.348;2023-04-03T09:16:55;8.80;99.90
4687;DHT22;2357;47.316;-1.348;2023-04-03T09:22:25;8.80;99.90
4687;DHT22;2357;47.316;-1.348;2023-04-03T09:27:41;8.90;99.90
4687;DHT22;2357;47.316;-1.348;2023-04-03T09:30:16;9.00;99.90
4687;DHT22;2357;47.316;-1.348;2023-04-03T09:32:45;9.00;99.90
4687;DHT22;2357;47.316;-1.348;2023-04-03T09:35:46;9.00;99.90
4687;DHT22;2357;47.316;-1.348;2023-04-03T09:41:05;9.00;99.90
4687;DHT22;2357;47.316;-1.348;2023-04-03T09:43:31;9.10;99.90
4687;DHT22;2357;47.316;-1.348;2023-04-03T09:46:37;9.10;99.90
4687;DHT22;2357;47.316;-1.348;2023-04-03T09:49:04;9.20;99.90
4687;DHT22;2357;47.316;-1.348;2023-04-03T09:51:31;9.30;99.90
4687;DHT22;2357;47.316;-1.348;2023-04-03T09:53:57;9.40;99.90
4687;DHT22;2357;47.316;-1.348;2023-04-03T09:56:28;9.40;99.90
4687;DHT22;2357;47.316;-1.348;2023-04-03T10:01:29;9.60;99.90
4687;DHT22;2357;47.316;-1.348;2023-04-03T10:04:14;9.60;99.90
4687;DHT22;2357;47.316;-1.348;2023-04-03T10:06:42;9.60;99.90
4687;DHT22;2357;47.316;-1.348;2023-04-03T10:09:28;9.60;99.90
4687;DHT22;2357;47.316;-1.348;2023-04-03T10:12:06;9.50;99.90
4687;DHT22;2357;47.316;-1.348;2023-04-03T10:22:37;9.80;99.90
4687;DHT22;2357;47.316;-1.348;2023-04-03T10:25:22;9.70;99.90
4687;DHT22;2357;47.316;-1.348;2023-04-03T10:28:05;9.70;99.90
4687;DHT22;2357;47.316;-1.348;2023-04-03T10:30:55;9.70;99.90
4687;DHT22;2357;47.316;-1.348;2023-04-03T10:42:36;9.60;99.90
4687;DHT22;2357;47.316;-1.348;2023-04-03T10:45:49;9.50;99.90
4687;DHT22;2357;47.316;-1.348;2023-04-03T10:49:00;9.50;99.90
4687;DHT22;2357;47.316;-1.348;2023-04-03T10:51:47;9.40;99.90
4687;DHT22;2357;47.316;-1.348;2023-04-03T10:56:52;9.40;99.90
4687;DHT22;2357;47.316;-1.348;2023-04-03T11:01:53;9.40;99.90
4687;DHT22;2357;47.316;-1.348;2023-04-03T11:04:22;9.40;99.90
4687;DHT22;2357;47.316;-1.348;2023-04-03T11:07:04;9.40;99.90
4687;DHT22;2357;47.316;-1.348;2023-04-03T11:09:35;9.40;99.90
4687;DHT22;2357;47.316;-1.348;2023-04-03T11:14:40;9.30;99.90
4687;DHT22;2357;47.316;-1.348;2023-04-03T11:17:18;9.20;99.90
4687;DHT22;2357;47.316;-1.348;2023-04-03T11:22:39;9.30;99.90
4687;DHT22;2357;47.316;-1.348;2023-04-03T11:25:18;9.20;99.90
4687;DHT22;2357;47.316;-1.348;2023-04-03T11:27:52;9.30;99.90
4687;DHT22;2357;47.316;-1.348;2023-04-03T11:33:00;9.80;99.90
4687;DHT22;2357;47.316;-1.348;2023-04-03T11:35:29;10.10;99.90
4687;DHT22;2357;47.316;-1.348;2023-04-03T11:37:56;10.30;99.90
4687;DHT22;2357;47.316;-1.348;2023-04-03T11:40:25;10.30;99.90
4687;DHT22;2357;47.316;-1.348;2023-04-03T11:42:55;10.50;99.90
4687;DHT22;2357;47.316;-1.348;2023-04-03T12:03:30;10.30;99.90
4687;DHT22;2357;47.316;-1.348;2023-04-03T12:08:46;10.40;99.90
4687;DHT22;2357;47.316;-1.348;2023-04-03T12:16:50;10.30;99.90
4687;DHT22;2357;47.316;-1.348;2023-04-03T12:24:24;10.40;99.90
4687;DHT22;2357;47.316;-1.348;2023-04-03T12:26:51;10.40;99.90
4687;DHT22;2357;47.316;-1.348;2023-04-03T12:43:11;10.60;99.90
4687;DHT22;2357;47.316;-1.348;2023-04-03T12:48:32;10.80;99.90
4687;DHT22;2357;47.316;-1.348;2023-04-03T12:50:59;10.80;99.90
4687;DHT22;2357;47.316;-1.348;2023-04-03T12:53:27;10.90;99.90
4687;DHT22;2357;47.316;-1.348;2023-04-03T12:55:57;11.00;99.90
4687;DHT22;2357;47.316;-1.348;2023-04-03T12:58:27;11.10;99.90
4687;DHT22;2357;47.316;-1.348;2023-04-03T13:01:17;11.20;99.90
4687;DHT22;2357;47.316;-1.348;2023-04-03T13:03:45;11.20;99.90
4687;DHT22;2357;47.316;-1.348;2023-04-03T13:06:28;11.30;99.90
4687;DHT22;2357;47.316;-1.348;2023-04-03T13:09:00;11.30;99.90
4687;DHT22;2357;47.316;-1.348;2023-04-03T13:11:35;11.40;99.90
4687;DHT22;2357;47.316;-1.348;2023-04-03T13:14:05;11.40;99.90
4687;DHT22;2357;47.316;-1.348;2023-04-03T13:16:32;11.60;99.90
4687;DHT22;2357;47.316;-1.348;2023-04-03T13:18:58;11.70;99.90
4687;DHT22;2357;47.316;-1.348;2023-04-03T13:21:28;11.90;99.90
4687;DHT22;2357;47.316;-1.348;2023-04-03T13:23:57;11.80;99.90
4687;DHT22;2357;47.316;-1.348;2023-04-03T13:26:26;11.80;99.90
4687;DHT22;2357;47.316;-1.348;2023-04-03T13:28:54;11.80;99.90
4687;DHT22;2357;47.316;-1.348;2023-04-03T13:31:39;11.90;99.90
4687;DHT22;2357;47.316;-1.348;2023-04-03T13:34:10;12.00;99.90
4687;DHT22;2357;47.316;-1.348;2023-04-03T13:36:40;12.00;99.90
4687;DHT22;2357;47.316;-1.348;2023-04-03T13:41:46;11.90;99.90
4687;DHT22;2357;47.316;-1.348;2023-04-03T13:46:55;12.10;99.90
4687;DHT22;2357;47.316;-1.348;2023-04-03T13:49:37;12.20;99.90
4687;DHT22;2357;47.316;-1.348;2023-04-03T13:52:26;12.40;99.90
4687;DHT22;2357;47.316;-1.348;2023-04-03T13:54:59;12.40;99.90
4687;DHT22;2357;47.316;-1.348;2023-04-03T13:57:26;12.50;99.90
4687;DHT22;2357;47.316;-1.348;2023-04-03T13:59:52;12.40;99.90
4687;DHT22;2357;47.316;-1.348;2023-04-03T14:02:38;12.30;99.90
4687;DHT22;2357;47.316;-1.348;2023-04-03T14:05:05;12.80;99.90
4687;DHT22;2357;47.316;-1.348;2023-04-03T14:07:33;13.10;99.90
4687;DHT22;2357;47.316;-1.348;2023-04-03T14:09:59;13.10;99.90
4687;DHT22;2357;47.316;-1.348;2023-04-03T14:12:30;13.00;99.90
4687;DHT22;2357;47.316;-1.348;2023-04-03T14:14:57;13.10;99.90
4687;DHT22;2357;47.316;-1.348;2023-04-03T14:17:25;13.10;99.90
4687;DHT22;2357;47.316;-1.348;2023-04-03T14:19:54;12.90;99.90
4687;DHT22;2357;47.316;-1.348;2023-04-03T14:22:32;12.80;99.90
4687;DHT22;2357;47.316;-1.348;2023-04-03T14:24:59;12.80;99.90
4687;DHT22;2357;47.316;-1.348;2023-04-03T14:27:26;12.70;99.90
4687;DHT22;2357;47.316;-1.348;2023-04-03T14:29:54;12.50;99.90
4687;DHT22;2357;47.316;-1.348;2023-04-03T14:32:21;12.50;99.90
4687;DHT22;2357;47.316;-1.348;2023-04-03T14:34:48;13.30;99.90
4687;DHT22;2357;47.316;-1.348;2023-04-03T14:37:17;13.10;99.90
4687;DHT22;2357;47.316;-1.348;2023-04-03T14:39:44;13.00;99.90
4687;DHT22;2357;47.316;-1.348;2023-04-03T14:42:17;13.00;99.90
4687;DHT22;2357;47.316;-1.348;2023-04-03T14:44:43;12.90;99.90
4687;DHT22;2357;47.316;-1.348;2023-04-03T14:47:18;12.90;99.90
4687;DHT22;2357;47.316;-1.348;2023-04-03T14:49:44;13.30;99.90
4687;DHT22;2357;47.316;-1.348;2023-04-03T14:52:25;13.90;99.90
4687;DHT22;2357;47.316;-1.348;2023-04-03T14:54:52;14.20;99.90
4687;DHT22;2357;47.316;-1.348;2023-04-03T14:57:18;14.10;99.90
4687;DHT22;2357;47.316;-1.348;2023-04-03T14:59:45;13.90;99.90
4687;DHT22;2357;47.316;-1.348;2023-04-03T15:02:33;13.40;99.90
4687;DHT22;2357;47.316;-1.348;2023-04-03T15:05:01;13.90;99.90
4687;DHT22;2357;47.316;-1.348;2023-04-03T15:07:31;14.30;99.90
4687;DHT22;2357;47.316;-1.348;2023-04-03T15:09:58;14.50;99.90
4687;DHT22;2357;47.316;-1.348;2023-04-03T15:12:25;14.60;99.90
4687;DHT22;2357;47.316;-1.348;2023-04-03T15:14:51;14.30;99.90
4687;DHT22;2357;47.316;-1.348;2023-04-03T15:17:21;14.20;99.90
4687;DHT22;2357;47.316;-1.348;2023-04-03T15:19:47;13.80;99.90
4687;DHT22;2357;47.316;-1.348;2023-04-03T15:22:17;13.60;99.90
4687;DHT22;2357;47.316;-1.348;2023-04-03T15:24:44;13.40;99.90
4687;DHT22;2357;47.316;-1.348;2023-04-03T15:27:11;13.60;99.90
4687;DHT22;2357;47.316;-1.348;2023-04-03T15:29:38;14.10;99.90
4687;DHT22;2357;47.316;-1.348;2023-04-03T15:32:04;13.80;99.90
4687;DHT22;2357;47.316;-1.348;2023-04-03T15:34:30;13.60;99.90
4687;DHT22;2357;47.316;-1.348;2023-04-03T15:36:56;13.50;99.90
4687;DHT22;2357;47.316;-1.348;2023-04-03T15:39:22;14.10;99.90
4687;DHT22;2357;47.316;-1.348;2023-04-03T15:41:49;14.60;99.90
4687;DHT22;2357;47.316;-1.348;2023-04-03T15:44:15;14.60;99.90
4687;DHT22;2357;47.316;-1.348;2023-04-03T15:46:43;15.10;99.90
4687;DHT22;2357;47.316;-1.348;2023-04-03T15:49:09;14.90;99.90
4687;DHT22;2357;47.316;-1.348;2023-04-03T15:51:35;15.30;99.90
4687;DHT22;2357;47.316;-1.348;2023-04-03T15:54:01;15.20;99.90
4687;DHT22;2357;47.316;-1.348;2023-04-03T15:56:26;15.50;99.90
4687;DHT22;2357;47.316;-1.348;2023-04-03T15:58:52;15.50;99.90
4687;DHT22;2357;47.316;-1.348;2023-04-03T16:01:18;15.60;99.90
4687;DHT22;2357;47.316;-1.348;2023-04-03T16:03:44;15.20;99.90
4687;DHT22;2357;47.316;-1.348;2023-04-03T16:06:14;15.00;99.90
4687;DHT22;2357;47.316;-1.348;2023-04-03T16:08:41;14.60;99.90
4687;DHT22;2357;47.316;-1.348;2023-04-03T16:11:07;14.40;99.90
4687;DHT22;2357;47.316;-1.348;2023-04-03T16:13:33;14.20;99.90
4687;DHT22;2357;47.316;-1.348;2023-04-03T16:15:59;14.10;99.90
4687;DHT22;2357;47.316;-1.348;2023-04-03T16:18:27;13.80;99.90
4687;DHT22;2357;47.316;-1.348;2023-04-03T16:20:52;13.80;99.90
4687;DHT22;2357;47.316;-1.348;2023-04-03T16:23:19;13.50;99.90
4687;DHT22;2357;47.316;-1.348;2023-04-03T16:25:44;13.30;99.90
4687;DHT22;2357;47.316;-1.348;2023-04-03T16:28:12;13.20;99.90
4687;DHT22;2357;47.316;-1.348;2023-04-03T16:30:43;13.20;99.90
4687;DHT22;2357;47.316;-1.348;2023-04-03T16:33:10;13.40;99.90
4687;DHT22;2357;47.316;-1.348;2023-04-03T16:35:37;13.60;99.90
4687;DHT22;2357;47.316;-1.348;2023-04-03T16:38:02;13.80;99.90
4687;DHT22;2357;47.316;-1.348;2023-04-03T16:40:28;14.70;99.90
4687;DHT22;2357;47.316;-1.348;2023-04-03T16:42:54;15.60;99.90
4687;DHT22;2357;47.316;-1.348;2023-04-03T16:45:20;18.20;99.90
4687;DHT22;2357;47.316;-1.348;2023-04-03T16:47:46;19.30;99.90
4687;DHT22;2357;47.316;-1.348;2023-04-03T16:50:11;17.80;99.90
4687;DHT22;2357;47.316;-1.348;2023-04-03T16:52:37;16.50;99.90
4687;DHT22;2357;47.316;-1.348;2023-04-03T16:55:03;15.40;99.90
4687;DHT22;2357;47.316;-1.348;2023-04-03T16:57:28;14.60;99.90
4687;DHT22;2357;47.316;-1.348;2023-04-03T16:59:54;14.20;99.90
4687;DHT22;2357;47.316;-1.348;2023-04-03T17:02:21;14.00;99.90
4687;DHT22;2357;47.316;-1.348;2023-04-03T17:04:50;13.70;99.90
4687;DHT22;2357;47.316;-1.348;2023-04-03T17:07:17;13.50;99.90
4687;DHT22;2357;47.316;-1.348;2023-04-03T17:09:43;13.40;99.90
4687;DHT22;2357;47.316;-1.348;2023-04-03T17:12:08;13.20;99.90
4687;DHT22;2357;47.316;-1.348;2023-04-03T17:14:34;13.20;99.90
4687;DHT22;2357;47.316;-1.348;2023-04-03T17:17:00;13.00;99.90
4687;DHT22;2357;47.316;-1.348;2023-04-03T17:19:25;12.80;99.90
4687;DHT22;2357;47.316;-1.348;2023-04-03T17:21:52;12.70;99.90
4687;DHT22;2357;47.316;-1.348;2023-04-03T17:24:18;12.70;99.90
4687;DHT22;2357;47.316;-1.348;2023-04-03T17:26:44;12.60;99.90
4687;DHT22;2357;47.316;-1.348;2023-04-03T17:29:10;12.60;99.90
4687;DHT22;2357;47.316;-1.348;2023-04-03T17:31:36;12.60;99.90
4687;DHT22;2357;47.316;-1.348;2023-04-03T17:34:02;12.60;99.90
4687;DHT22;2357;47.316;-1.348;2023-04-03T17:36:32;12.70;99.90
4687;DHT22;2357;47.316;-1.348;2023-04-03T17:38:58;12.60;99.90
4687;DHT22;2357;47.316;-1.348;2023-04-03T17:41:24;12.60;99.90
4687;DHT22;2357;47.316;-1.348;2023-04-03T17:43:50;12.60;99.90
4687;DHT22;2357;47.316;-1.348;2023-04-03T17:46:17;12.20;99.90
4687;DHT22;2357;47.316;-1.348;2023-04-03T17:48:43;12.20;99.90
4687;DHT22;2357;47.316;-1.348;2023-04-03T17:51:15;12.20;99.90
4687;DHT22;2357;47.316;-1.348;2023-04-03T17:53:41;12.20;99.90
4687;DHT22;2357;47.316;-1.348;2023-04-03T17:56:10;12.20;99.90
4687;DHT22;2357;47.316;-1.348;2023-04-03T17:58:36;12.10;99.90
4687;DHT22;2357;47.316;-1.348;2023-04-03T18:01:32;12.10;99.90